Time;durP1;ratioP1;P1;durP2;ratioP2;P2;SDS_P1;SDS_P2;PMS_P1;PMS_P2;Temp;Humidity;BMP_temperature;BMP_pressure;BME280_temperature;BME280_humidity;BME280_pressure;Samples;Min_cycle;Max_cycle;Signal;HPM_P1;HPM_P2
2022/04/23 00:01:47;;;;;;;24.42;13.77;;;13.30;99.90;;;;;;5072544;28;20028;-72
2022/04/23 00:04:13;;;;;;;20.45;11.25;;;13.30;99.90;;;;;;5071903;28;20055;-74
2022/04/23 00:06:39;;;;;;;17.65;10.63;;;13.40;99.90;;;;;;5072452;28;20182;-76
2022/04/23 00:09:06;;;;;;;18.02;10.15;;;13.40;99.90;;;;;;5072463;28;20047;-69
2022/04/23 00:11:32;;;;;;;15.40;9.50;;;13.50;99.90;;;;;;5072401;28;20479;-77
2022/04/23 00:13:59;;;;;;;16.38;8.07;;;13.40;99.90;;;;;;5069124;28;20078;-74
2022/04/23 00:16:25;;;;;;;18.30;9.68;;;13.40;99.90;;;;;;5056376;28;20025;-70
2022/04/23 00:18:51;;;;;;;28.25;14.48;;;13.50;99.90;;;;;;5069384;28;20021;-66
2022/04/23 00:21:18;;;;;;;21.90;10.80;;;13.60;99.90;;;;;;5072959;28;20539;-77
2022/04/23 00:23:46;;;;;;;23.23;10.15;;;13.50;99.90;;;;;;5071790;28;20481;-74
2022/04/23 00:26:16;;;;;;;19.48;10.93;;;13.60;99.90;;;;;;5072122;28;20050;-66
2022/04/23 00:28:42;;;;;;;18.42;8.73;;;13.60;99.90;;;;;;5053707;28;20048;-70
2022/04/23 00:31:08;;;;;;;17.48;9.15;;;13.60;99.90;;;;;;5072326;28;20423;-74
2022/04/23 00:33:37;;;;;;;15.27;8.43;;;13.60;99.90;;;;;;5072798;28;20111;-67
2022/04/23 00:36:10;;;;;;;14.65;8.93;;;13.70;99.90;;;;;;5072592;28;20483;-71
2022/04/23 00:38:42;;;;;;;17.48;9.25;;;13.70;99.90;;;;;;5072369;28;20470;-73
2022/04/23 00:41:43;;;;;;;18.65;9.82;;;13.70;99.90;;;;;;5072383;28;20500;-75
2022/04/23 00:43:56;;;;;;;21.83;10.40;;;13.80;99.90;;;;;;5071794;28;20036;-71
2022/04/23 00:46:22;;;;;;;16.85;10.07;;;13.60;99.90;;;;;;5085923;28;20123;-72
2022/04/23 00:48:48;;;;;;;29.42;16.73;;;13.60;99.90;;;;;;5092429;28;20134;-77
2022/04/23 00:51:14;;;;;;;20.25;11.88;;;13.50;99.90;;;;;;5091927;28;20078;-67
2022/04/23 00:53:40;;;;;;;19.80;12.48;;;13.40;99.90;;;;;;5092601;28;20027;-73
2022/04/23 00:56:06;;;;;;;21.80;11.35;;;13.50;99.90;;;;;;5092546;28;20026;-76
2022/04/23 00:58:31;;;;;;;16.08;9.55;;;13.50;99.90;;;;;;5092240;28;20101;-76
2022/04/23 01:00:57;;;;;;;16.60;9.70;;;13.60;99.90;;;;;;5092292;28;20031;-69
2022/04/23 01:03:23;;;;;;;23.02;10.27;;;13.60;99.90;;;;;;5092653;28;20532;-76
2022/04/23 01:05:49;;;;;;;24.17;14.15;;;13.60;99.90;;;;;;5092398;28;20082;-71
2022/04/23 01:08:18;;;;;;;17.83;11.10;;;13.40;99.90;;;;;;5092123;28;20032;-74
2022/04/23 01:10:45;;;;;;;20.15;10.65;;;13.40;99.90;;;;;;5092229;28;20020;-76
2022/04/23 01:13:14;;;;;;;23.20;10.10;;;13.30;99.90;;;;;;5091884;28;20028;-73
2022/04/23 01:16:07;;;;;;;18.02;7.88;;;13.30;99.90;;;;;;5087343;28;20020;-71
2022/04/23 01:18:36;;;;;;;15.82;8.43;;;13.30;99.90;;;;;;5067086;28;20375;-75
2022/04/23 01:21:04;;;;;;;15.50;8.35;;;13.30;99.90;;;;;;5071775;28;20059;-76
2022/04/23 01:23:30;;;;;;;14.77;7.68;;;13.30;99.90;;;;;;5071810;28;20051;-73
2022/04/23 01:26:00;;;;;;;16.30;8.80;;;13.30;99.90;;;;;;5070645;28;20035;-67
2022/04/23 01:28:28;;;;;;;14.18;8.02;;;13.10;99.90;;;;;;5070560;28;20375;-75
2022/04/23 01:30:57;;;;;;;19.08;9.07;;;12.90;99.90;;;;;;5065629;28;20017;-77
2022/04/23 01:33:23;;;;;;;15.65;9.90;;;12.80;99.90;;;;;;5051646;28;20079;-77
2022/04/23 01:35:49;;;;;;;19.83;11.57;;;12.80;99.90;;;;;;5069452;28;20028;-73
2022/04/23 01:38:14;;;;;;;22.60;9.75;;;12.80;99.90;;;;;;5071591;28;20489;-78
2022/04/23 01:40:41;;;;;;;21.40;13.32;;;12.80;99.90;;;;;;5071409;28;20374;-75
2022/04/23 01:43:08;;;;;;;19.17;11.20;;;12.90;99.90;;;;;;5071319;28;20029;-71
2022/04/23 01:45:35;;;;;;;17.50;10.95;;;12.90;99.90;;;;;;5087398;28;20394;-67
2022/04/23 01:48:00;;;;;;;19.85;10.43;;;12.90;99.90;;;;;;5078239;28;20125;-76
2022/04/23 01:50:26;;;;;;;20.38;10.50;;;12.90;99.90;;;;;;5071483;28;20101;-73
2022/04/23 01:52:52;;;;;;;16.80;9.90;;;13.00;99.90;;;;;;5071196;28;20489;-65
2022/04/23 01:55:18;;;;;;;18.83;10.50;;;13.00;99.90;;;;;;5070147;28;20024;-66
2022/04/23 01:57:44;;;;;;;19.63;9.98;;;13.00;99.90;;;;;;5070240;28;20470;-75
2022/04/23 02:00:13;;;;;;;17.45;9.88;;;13.00;99.90;;;;;;5070865;28;20024;-67
2022/04/23 02:02:40;;;;;;;16.08;8.98;;;13.10;99.90;;;;;;5070359;28;20536;-71
2022/04/23 02:05:07;;;;;;;17.70;9.73;;;13.10;99.90;;;;;;5071119;28;20487;-77
2022/04/23 02:07:40;;;;;;;17.83;9.93;;;13.10;99.90;;;;;;5069502;28;20494;-77
2022/04/23 02:10:08;;;;;;;16.80;8.65;;;13.00;99.90;;;;;;5069676;28;20032;-75
2022/04/23 02:12:34;;;;;;;15.55;9.65;;;13.10;99.90;;;;;;5069953;28;20035;-74
2022/04/23 02:15:01;;;;;;;16.58;10.45;;;13.10;99.90;;;;;;5069039;28;20064;-78
2022/04/23 02:17:40;;;;;;;18.95;10.88;;;13.00;99.90;;;;;;5069513;28;20028;-81
2022/04/23 02:20:15;;;;;;;19.80;12.65;;;13.00;99.90;;;;;;5069796;28;20025;-81
2022/04/23 02:22:45;;;;;;;20.17;12.10;;;13.00;99.90;;;;;;5070209;28;20594;-74
2022/04/23 02:25:11;;;;;;;19.05;10.90;;;13.10;99.90;;;;;;5070464;28;20029;-74
2022/04/23 02:27:45;;;;;;;22.00;9.80;;;13.10;99.90;;;;;;5070294;28;20070;-72
2022/04/23 02:30:13;;;;;;;20.95;10.90;;;13.10;99.90;;;;;;5070606;28;20370;-67
2022/04/23 02:32:40;;;;;;;19.40;10.93;;;13.10;99.90;;;;;;5067116;28;20406;-72
2022/04/23 02:35:06;;;;;;;17.70;10.45;;;13.10;99.90;;;;;;5070521;28;20086;-70
2022/04/23 02:37:34;;;;;;;20.33;11.38;;;13.10;99.90;;;;;;5070524;28;20470;-68
2022/04/23 02:40:04;;;;;;;21.05;11.25;;;13.20;99.90;;;;;;5071062;28;20087;-72
2022/04/23 02:42:30;;;;;;;15.93;10.80;;;13.20;99.90;;;;;;5071042;28;20043;-77
2022/04/23 02:45:01;;;;;;;19.85;11.02;;;13.20;99.90;;;;;;5070829;28;20395;-70
2022/04/23 02:47:43;;;;;;;18.90;10.00;;;13.20;99.90;;;;;;5070927;28;20028;-71
2022/04/23 02:50:12;;;;;;;18.35;10.68;;;13.20;99.90;;;;;;5070826;28;20068;-77
2022/04/23 02:52:40;;;;;;;16.08;9.93;;;13.20;99.90;;;;;;5071092;28;20052;-77
2022/04/23 02:55:06;;;;;;;17.27;10.05;;;13.30;99.90;;;;;;5070787;28;20028;-77
2022/04/23 02:57:33;;;;;;;15.88;10.35;;;13.30;99.90;;;;;;5070609;28;20035;-72
2022/04/23 02:59:59;;;;;;;17.38;9.73;;;13.30;99.90;;;;;;5069005;28;20041;-77
2022/04/23 03:02:24;;;;;;;16.20;8.65;;;13.30;99.90;;;;;;5070821;28;20028;-75
2022/04/23 03:04:50;;;;;;;17.77;8.93;;;13.30;99.90;;;;;;5080573;28;20455;-76
2022/04/23 03:07:17;;;;;;;21.23;9.93;;;13.30;99.90;;;;;;5070533;28;20035;-77
2022/04/23 03:09:42;;;;;;;19.42;9.30;;;13.30;99.90;;;;;;5075925;28;20031;-72
2022/04/23 03:12:09;;;;;;;17.80;9.43;;;13.30;99.90;;;;;;5070510;28;20383;-73
2022/04/23 03:14:35;;;;;;;15.05;8.57;;;13.30;99.90;;;;;;5073780;28;20024;-76
2022/04/23 03:17:01;;;;;;;17.20;8.90;;;13.40;99.90;;;;;;5073794;28;20036;-74
2022/04/23 03:19:29;;;;;;;15.63;8.90;;;13.30;99.90;;;;;;5073924;28;20056;-74
2022/04/23 03:21:57;;;;;;;14.45;9.48;;;13.30;99.90;;;;;;5072458;28;20058;-75
2022/04/23 03:24:23;;;;;;;26.80;10.15;;;13.30;99.90;;;;;;5073763;28;20569;-75
2022/04/23 03:26:49;;;;;;;16.77;10.18;;;13.30;99.90;;;;;;5073545;28;20037;-75
2022/04/23 03:29:15;;;;;;;16.45;9.65;;;13.30;99.90;;;;;;5073593;28;20043;-76
2022/04/23 03:31:41;;;;;;;13.90;8.35;;;13.30;99.90;;;;;;5073781;28;20016;-69
2022/04/23 03:34:07;;;;;;;14.55;8.73;;;13.20;99.90;;;;;;5073615;28;20087;-72
2022/04/23 03:36:33;;;;;;;16.08;9.07;;;13.20;99.90;;;;;;5073629;28;20512;-75
2022/04/23 03:38:59;;;;;;;14.77;7.95;;;13.10;99.90;;;;;;5073572;28;20096;-76
2022/04/23 03:41:25;;;;;;;15.20;8.43;;;13.00;99.90;;;;;;5073588;28;20028;-77
2022/04/23 03:43:50;;;;;;;14.48;9.13;;;12.90;99.90;;;;;;5073531;28;20066;-70
2022/04/23 03:46:20;;;;;;;14.32;7.80;;;12.90;99.90;;;;;;5073793;28;20049;-77
2022/04/23 03:48:46;;;;;;;16.23;9.05;;;12.90;99.90;;;;;;5072189;28;20047;-71
2022/04/23 03:51:12;;;;;;;15.65;8.85;;;12.80;99.90;;;;;;5072952;28;20375;-75
2022/04/23 03:53:38;;;;;;;15.57;8.82;;;12.70;99.90;;;;;;5073932;28;20029;-74
2022/04/23 03:56:05;;;;;;;16.05;9.25;;;12.60;99.90;;;;;;5073469;28;20016;-74
2022/04/23 03:58:31;;;;;;;18.30;9.98;;;12.60;99.90;;;;;;5072008;28;20506;-77
2022/04/23 04:00:57;;;;;;;15.70;9.45;;;12.50;99.90;;;;;;5073400;28;20017;-69
2022/04/23 04:03:23;;;;;;;18.15;10.65;;;12.60;99.90;;;;;;5073371;28;20536;-77
2022/04/23 04:05:49;;;;;;;17.80;10.77;;;12.50;99.90;;;;;;5073298;28;20021;-77
2022/04/23 04:08:15;;;;;;;17.58;11.07;;;12.50;99.90;;;;;;5073047;28;20089;-69
2022/04/23 04:10:40;;;;;;;19.08;11.82;;;12.70;99.90;;;;;;5073139;28;20048;-73
2022/04/23 04:13:06;;;;;;;20.70;11.90;;;12.60;99.90;;;;;;5072665;28;20081;-74
2022/04/23 04:15:33;;;;;;;20.52;12.73;;;12.60;99.90;;;;;;5072992;28;20531;-76
2022/04/23 04:17:59;;;;;;;23.90;12.60;;;12.80;99.90;;;;;;5072625;28;20047;-76
2022/04/23 04:20:25;;;;;;;20.48;12.20;;;13.30;99.90;;;;;;5073116;28;20028;-77
2022/04/23 04:22:51;;;;;;;26.83;17.02;;;13.40;99.90;;;;;;5073195;28;20501;-76
2022/04/23 04:25:17;;;;;;;30.35;20.05;;;13.40;99.90;;;;;;5071650;28;20127;-76
2022/04/23 04:27:43;;;;;;;32.05;22.50;;;13.40;99.90;;;;;;5071747;28;20071;-76
2022/04/23 04:30:11;;;;;;;38.20;27.73;;;13.30;99.90;;;;;;5068788;28;20371;-75
2022/04/23 04:32:38;;;;;;;23.95;17.15;;;13.40;99.90;;;;;;5070841;28;20422;-76
2022/04/23 04:35:04;;;;;;;17.75;12.13;;;13.40;99.90;;;;;;5072227;28;20526;-70
2022/04/23 04:37:30;;;;;;;18.35;11.82;;;13.40;99.90;;;;;;5071849;28;20555;-69
2022/04/23 04:39:56;;;;;;;17.70;10.45;;;13.40;99.90;;;;;;5071893;28;20021;-72
2022/04/23 04:42:22;;;;;;;17.65;9.35;;;13.40;99.90;;;;;;5072296;28;20122;-77
2022/04/23 04:44:49;;;;;;;17.77;10.45;;;13.60;99.90;;;;;;5071545;28;20052;-75
2022/04/23 04:47:16;;;;;;;13.77;8.98;;;14.80;99.90;;;;;;5071876;28;20036;-75
2022/04/23 04:49:42;;;;;;;16.92;8.38;;;15.80;99.90;;;;;;5071888;28;20040;-77
2022/04/23 04:52:08;;;;;;;13.98;8.20;;;16.90;99.90;;;;;;5072049;28;20099;-77
2022/04/23 04:54:34;;;;;;;13.05;7.07;;;17.40;99.90;;;;;;5071496;28;20130;-75
2022/04/23 04:57:02;;;;;;;15.07;8.30;;;17.10;99.90;;;;;;5071970;28;20060;-71
2022/04/23 04:59:31;;;;;;;13.50;7.47;;;16.60;99.90;;;;;;5072045;28;20024;-77
2022/04/23 05:01:58;;;;;;;13.98;7.47;;;16.40;99.90;;;;;;5071543;28;20028;-74
2022/04/23 05:04:24;;;;;;;15.07;7.57;;;16.10;99.90;;;;;;5072377;28;20075;-69
2022/04/23 05:07:12;;;;;;;14.93;7.53;;;16.00;99.90;;;;;;5071681;28;20097;-77
2022/04/23 05:09:38;;;;;;;14.57;8.43;;;15.90;99.90;;;;;;5071842;28;20025;-77
2022/04/23 05:12:04;;;;;;;14.05;7.97;;;15.70;99.90;;;;;;5071552;28;20027;-76
2022/04/23 05:14:30;;;;;;;15.45;9.15;;;15.80;99.90;;;;;;5071363;28;20076;-73
2022/04/23 05:16:55;;;;;;;17.85;9.80;;;15.80;99.90;;;;;;5071383;28;20035;-74
2022/04/23 05:19:21;;;;;;;18.90;9.48;;;15.40;99.90;;;;;;5071808;28;20021;-77
2022/04/23 05:21:47;;;;;;;17.13;8.70;;;15.10;99.90;;;;;;5071279;28;20519;-75
2022/04/23 05:24:14;;;;;;;18.33;9.40;;;15.40;99.90;;;;;;5070472;28;20024;-77
2022/04/23 05:26:43;;;;;;;18.55;9.55;;;15.60;99.90;;;;;;5070993;28;20826;-78
2022/04/23 05:29:09;;;;;;;16.00;10.73;;;15.80;99.90;;;;;;5071404;28;20039;-78
2022/04/23 05:31:38;;;;;;;19.40;10.38;;;15.70;99.90;;;;;;5071655;28;20017;-73
2022/04/23 05:34:04;;;;;;;18.30;10.73;;;15.50;99.90;;;;;;5071463;28;20050;-76
2022/04/23 05:36:30;;;;;;;20.17;11.23;;;15.30;99.90;;;;;;5070769;28;20021;-76
2022/04/23 05:38:56;;;;;;;17.52;10.15;;;15.00;99.90;;;;;;5071058;28;20043;-71
2022/04/23 05:41:23;;;;;;;13.88;8.50;;;14.90;99.90;;;;;;5071757;28;20020;-78
2022/04/23 05:43:49;;;;;;;19.83;10.38;;;14.80;99.90;;;;;;5072835;28;20025;-77
2022/04/23 05:46:16;;;;;;;20.45;11.68;;;14.60;99.90;;;;;;5079482;28;20047;-77
2022/04/23 05:48:45;;;;;;;17.10;11.15;;;14.60;99.90;;;;;;5071084;28;20041;-78
2022/04/23 05:51:11;;;;;;;15.73;11.07;;;14.50;99.90;;;;;;5071406;28;20016;-75
2022/04/23 05:53:37;;;;;;;21.67;11.98;;;14.40;99.90;;;;;;5071437;28;20033;-72
2022/04/23 05:56:03;;;;;;;18.55;10.65;;;14.50;99.90;;;;;;5071005;28;20066;-70
2022/04/23 05:58:29;;;;;;;16.85;9.73;;;14.50;99.90;;;;;;5070887;28;20024;-76
2022/04/23 06:00:56;;;;;;;17.83;9.90;;;14.70;99.90;;;;;;5070615;28;20375;-76
2022/04/23 06:03:21;;;;;;;20.20;9.77;;;14.80;99.90;;;;;;5071017;28;20067;-76
2022/04/23 06:05:47;;;;;;;21.40;11.25;;;14.70;99.90;;;;;;5070863;28;20115;-75
2022/04/23 06:08:13;;;;;;;18.20;11.77;;;14.60;99.90;;;;;;5067880;28;20025;-72
2022/04/23 06:10:39;;;;;;;18.40;10.40;;;14.70;99.90;;;;;;5070758;28;20090;-75
2022/04/23 06:13:08;;;;;;;20.55;11.40;;;14.90;99.90;;;;;;5070797;28;20505;-71
2022/04/23 06:15:34;;;;;;;19.15;10.10;;;14.90;99.90;;;;;;5070615;28;20067;-77
2022/04/23 06:18:00;;;;;;;19.00;11.48;;;15.30;99.90;;;;;;5070289;28;20043;-73
2022/04/23 06:20:26;;;;;;;22.80;12.32;;;15.70;99.90;;;;;;5070983;28;20028;-78
2022/04/23 06:22:52;;;;;;;17.20;10.18;;;16.10;99.90;;;;;;5070668;28;20548;-76
2022/04/23 06:25:18;;;;;;;14.68;8.52;;;16.60;99.90;;;;;;5070495;28;20470;-75
2022/04/23 06:27:44;;;;;;;14.40;8.27;;;16.60;99.90;;;;;;5070657;28;20035;-75
2022/04/23 06:30:10;;;;;;;13.85;8.20;;;16.30;99.90;;;;;;5070663;28;20074;-78
2022/04/23 06:32:39;;;;;;;13.82;6.60;;;16.00;99.90;;;;;;5067096;28;20024;-77
2022/04/23 06:35:08;;;;;;;13.02;6.82;;;15.70;99.90;;;;;;5071188;28;20017;-80
2022/04/23 06:37:41;;;;;;;11.77;5.88;;;15.60;99.90;;;;;;5071032;28;20383;-77
2022/04/23 06:40:14;;;;;;;9.75;5.13;;;15.40;99.90;;;;;;5070530;28;20485;-78
2022/04/23 06:42:40;;;;;;;10.90;5.28;;;15.30;99.90;;;;;;5070641;28;20111;-76
2022/04/23 06:45:10;;;;;;;8.48;4.85;;;15.40;99.90;;;;;;5068619;28;20105;-78
2022/04/23 06:47:36;;;;;;;9.68;4.75;;;15.50;99.90;;;;;;5070585;28;20041;-75
2022/04/23 06:50:02;;;;;;;12.38;6.10;;;15.50;99.90;;;;;;5074035;28;20524;-79
2022/04/23 06:52:28;;;;;;;10.73;5.38;;;15.80;99.90;;;;;;5074894;28;20138;-78
2022/04/23 06:54:54;;;;;;;10.93;6.15;;;15.70;99.90;;;;;;5074223;28;20100;-79
2022/04/23 06:57:23;;;;;;;16.80;7.18;;;15.80;99.90;;;;;;5074526;28;20033;-78
2022/04/23 06:59:49;;;;;;;11.98;7.00;;;15.70;99.90;;;;;;5074031;28;20074;-76
2022/04/23 07:02:16;;;;;;;11.98;6.63;;;16.00;99.90;;;;;;5074130;28;20463;-78
2022/04/23 07:04:41;;;;;;;12.73;6.20;;;15.90;99.90;;;;;;5074021;28;20051;-78
2022/04/23 07:07:08;;;;;;;11.75;5.63;;;15.90;99.90;;;;;;5070318;28;20024;-80
2022/04/23 07:09:34;;;;;;;9.57;4.78;;;16.00;99.90;;;;;;5071238;28;20040;-71
2022/04/23 07:12:00;;;;;;;7.32;5.22;;;16.10;99.90;;;;;;5072890;28;20025;-79
2022/04/23 07:14:26;;;;;;;8.23;4.93;;;15.80;99.90;;;;;;5072692;28;20417;-78
2022/04/23 07:16:51;;;;;;;12.95;4.32;;;15.80;99.90;;;;;;5072985;28;20068;-78
2022/04/23 07:19:17;;;;;;;11.90;4.57;;;15.70;99.90;;;;;;5072892;28;20607;-80
2022/04/23 07:21:43;;;;;;;8.82;4.45;;;15.80;99.90;;;;;;5073727;28;20024;-78
2022/04/23 07:24:11;;;;;;;9.30;4.68;;;15.80;99.90;;;;;;5072575;28;20364;-79
2022/04/23 07:26:38;;;;;;;10.18;4.10;;;16.00;99.90;;;;;;5073408;28;20029;-78
2022/04/23 07:29:07;;;;;;;6.30;3.80;;;16.00;99.90;;;;;;5073501;28;20033;-79
2022/04/23 07:31:34;;;;;;;8.52;4.10;;;16.00;99.90;;;;;;5073720;28;20025;-78
2022/04/23 07:39:29;;;;;;;10.48;4.35;;;16.40;99.90;;;;;;5073661;28;20021;-80
2022/04/23 07:41:55;;;;;;;10.25;4.85;;;16.60;99.90;;;;;;5073286;28;20646;-75
2022/04/23 07:44:22;;;;;;;10.95;4.85;;;16.40;99.90;;;;;;5073351;28;20108;-78
2022/04/23 07:46:48;;;;;;;9.95;5.20;;;16.20;99.90;;;;;;5073210;28;20040;-76
2022/04/23 07:49:14;;;;;;;11.45;5.63;;;16.50;99.90;;;;;;5073115;28;20033;-77
2022/04/23 07:51:46;;;;;;;9.05;5.22;;;16.70;99.90;;;;;;5073101;28;20017;-76
2022/04/23 07:54:13;;;;;;;10.93;4.93;;;16.90;99.90;;;;;;5073033;28;20058;-79
2022/04/23 07:56:39;;;;;;;12.40;5.47;;;17.00;99.90;;;;;;5072808;28;20025;-68
2022/04/23 07:59:05;;;;;;;11.52;6.05;;;17.30;99.90;;;;;;5072162;28;20541;-76
2022/04/23 08:01:34;;;;;;;8.95;5.07;;;17.30;99.90;;;;;;5071769;28;20489;-76
2022/04/23 08:04:02;;;;;;;8.70;5.43;;;17.10;99.90;;;;;;5072442;28;20059;-76
2022/04/23 08:06:28;;;;;;;8.95;4.85;;;17.10;99.90;;;;;;5072076;28;20040;-77
2022/04/23 08:08:54;;;;;;;10.18;5.40;;;17.20;99.90;;;;;;5071762;28;20086;-76
2022/04/23 08:11:22;;;;;;;6.85;4.10;;;17.50;99.90;;;;;;5071603;28;20025;-77
2022/04/23 08:13:50;;;;;;;9.65;5.05;;;17.50;99.90;;;;;;5073399;28;20068;-77
2022/04/23 08:16:16;;;;;;;8.20;4.88;;;17.30;99.90;;;;;;5073006;28;20378;-74
2022/04/23 08:18:42;;;;;;;13.20;5.07;;;17.10;99.90;;;;;;5071649;28;20474;-70
2022/04/23 08:21:07;;;;;;;13.32;5.07;;;17.30;99.90;;;;;;5071899;28;20021;-71
2022/04/23 08:23:33;;;;;;;11.88;4.55;;;17.30;99.90;;;;;;5071059;28;20028;-73
2022/04/23 08:26:05;;;;;;;9.55;4.53;;;17.00;99.90;;;;;;5072900;28;20494;-71
2022/04/23 08:31:16;;;;;;;8.57;5.07;;;16.90;99.90;;;;;;5073291;28;20419;-72
2022/04/23 08:34:00;;;;;;;8.88;4.35;;;16.90;99.90;;;;;;5072715;28;20028;-70
2022/04/23 08:36:36;;;;;;;8.75;4.18;;;17.40;99.90;;;;;;5071188;28;20020;-70
2022/04/23 08:39:07;;;;;;;8.73;3.85;;;17.20;99.90;;;;;;5061237;28;20027;-72
2022/04/23 08:41:34;;;;;;;8.13;5.13;;;17.80;99.90;;;;;;5072312;28;20028;-71
2022/04/23 08:44:05;;;;;;;9.73;5.25;;;17.80;99.90;;;;;;5072766;28;20078;-72
2022/04/23 08:46:40;;;;;;;10.90;5.05;;;18.00;99.90;;;;;;5072778;28;20500;-72
2022/04/23 08:49:08;;;;;;;10.90;4.90;;;18.30;99.90;;;;;;5071982;28;20074;-71
2022/04/23 08:51:35;;;;;;;12.77;5.35;;;18.10;99.90;;;;;;5072723;28;20020;-73
2022/04/23 08:54:07;;;;;;;9.98;5.65;;;18.50;99.90;;;;;;5072606;28;20087;-66
2022/04/23 08:56:37;;;;;;;12.85;5.45;;;18.00;99.90;;;;;;5071524;28;20029;-72
2022/04/23 08:59:06;;;;;;;9.65;4.90;;;18.00;99.90;;;;;;5071982;28;20108;-69
2022/04/23 09:01:36;;;;;;;9.60;5.70;;;18.40;99.90;;;;;;5072318;28;20028;-70
2022/04/23 09:04:03;;;;;;;9.57;5.15;;;18.30;99.90;;;;;;5071405;28;20024;-74
2022/04/23 09:06:36;;;;;;;8.15;3.78;;;18.00;99.90;;;;;;5072512;28;20028;-72
2022/04/23 09:09:13;;;;;;;8.90;4.90;;;18.00;99.90;;;;;;5071748;28;20475;-72
2022/04/23 09:11:45;;;;;;;10.35;4.38;;;18.10;99.90;;;;;;5071949;28;20038;-71
2022/04/23 09:14:22;;;;;;;11.07;5.07;;;18.00;99.90;;;;;;5072224;28;20108;-72
2022/04/23 09:25:10;;;;;;;10.27;4.95;;;18.30;99.90;;;;;;5072102;28;20024;-72
2022/04/23 09:27:37;;;;;;;9.93;4.57;;;18.70;99.90;;;;;;5071749;28;20068;-71
2022/04/23 09:30:08;;;;;;;7.10;4.30;;;19.00;99.90;;;;;;5071244;28;20027;-73
2022/04/23 09:32:35;;;;;;;7.25;4.63;;;18.90;99.90;;;;;;5071305;28;20119;-71
2022/04/23 09:35:10;;;;;;;9.55;4.78;;;19.10;99.90;;;;;;5071308;28;20021;-72
2022/04/23 09:40:23;;;;;;;8.88;4.90;;;19.00;99.90;;;;;;5071133;28;20108;-72
2022/04/23 09:43:11;;;;;;;9.15;5.07;;;19.10;99.90;;;;;;5071424;28;20032;-73
2022/04/23 09:45:44;;;;;;;8.23;5.40;;;18.30;99.90;;;;;;5069383;28;20040;-74
2022/04/23 09:48:16;;;;;;;7.72;4.75;;;18.10;99.90;;;;;;5067925;28;20040;-74
2022/04/23 09:50:44;;;;;;;9.80;5.10;;;17.80;99.90;;;;;;5061043;28;20049;-74
2022/04/23 09:53:11;;;;;;;13.70;6.38;;;18.30;99.90;;;;;;5051344;28;20096;-67
2022/04/23 09:55:38;;;;;;;8.90;4.88;;;18.70;99.90;;;;;;5051194;28;20017;-76
2022/04/23 09:58:08;;;;;;;6.90;3.95;;;18.80;99.90;;;;;;5052454;28;20044;-75
2022/04/23 10:00:42;;;;;;;8.38;4.47;;;18.80;99.90;;;;;;5055600;28;20738;-74
2022/04/23 10:03:09;;;;;;;9.32;3.97;;;18.80;99.90;;;;;;5059886;28;20024;-72
2022/04/23 10:05:45;;;;;;;7.78;3.90;;;18.70;99.90;;;;;;5061530;28;20025;-72
2022/04/23 10:08:17;;;;;;;9.80;3.35;;;18.80;99.90;;;;;;5068458;28;20032;-75
2022/04/23 10:10:49;;;;;;;8.00;4.13;;;18.60;99.90;;;;;;5070514;28;20033;-73
2022/04/23 10:13:18;;;;;;;7.25;3.95;;;18.50;99.90;;;;;;5070197;28;20032;-74
2022/04/23 10:15:46;;;;;;;10.32;3.75;;;18.80;99.90;;;;;;5071290;28;20025;-73
2022/04/23 10:18:13;;;;;;;9.45;3.53;;;19.20;99.90;;;;;;5070622;28;20043;-74
2022/04/23 10:20:40;;;;;;;8.15;3.95;;;19.30;99.90;;;;;;5071018;28;20020;-73
2022/04/23 10:23:14;;;;;;;7.95;3.45;;;19.20;99.90;;;;;;5069100;28;20111;-73
2022/04/23 10:26:02;;;;;;;7.28;3.40;;;19.10;99.90;;;;;;5070652;28;20029;-73
2022/04/23 10:28:28;;;;;;;5.22;3.53;;;19.30;99.90;;;;;;5070243;28;20032;-73
2022/04/23 10:31:17;;;;;;;9.63;3.83;;;19.40;99.90;;;;;;5071116;28;20019;-73
2022/04/23 10:33:52;;;;;;;9.77;4.03;;;19.50;99.90;;;;;;5070010;28;20024;-74
2022/04/23 10:36:20;;;;;;;8.88;4.10;;;19.50;99.90;;;;;;5070890;28;20024;-74
2022/04/23 10:38:53;;;;;;;11.63;5.47;;;19.30;99.90;;;;;;5070996;28;20536;-70
2022/04/23 10:41:23;;;;;;;9.13;4.85;;;19.00;99.90;;;;;;5071301;28;20747;-74
2022/04/23 10:43:59;;;;;;;9.27;4.75;;;18.90;99.90;;;;;;5071404;28;20114;-72
2022/04/23 10:46:37;;;;;;;9.35;4.53;;;19.20;99.90;;;;;;5070865;28;20036;-71
2022/04/23 10:49:17;;;;;;;9.23;4.57;;;19.40;99.90;;;;;;5070752;28;20478;-72
2022/04/23 10:51:56;;;;;;;6.45;3.88;;;19.40;99.90;;;;;;5071350;28;20043;-67
2022/04/23 10:54:40;;;;;;;6.93;3.45;;;19.50;99.90;;;;;;5070480;28;20048;-66
2022/04/23 10:57:07;;;;;;;6.90;3.55;;;19.50;99.90;;;;;;5070405;28;20510;-71
2022/04/23 10:59:45;;;;;;;7.95;3.67;;;19.50;99.90;;;;;;5070688;28;20020;-70
2022/04/23 11:02:19;;;;;;;7.47;3.47;;;19.20;99.90;;;;;;5069869;28;20028;-67
2022/04/23 11:12:14;;;;;;;11.90;4.47;;;19.20;99.90;;;;;;5070007;28;20070;-67
2022/04/23 11:13:32;;;;;;;9.13;4.38;;;19.40;99.90;;;;;;5067906;28;20099;-73
2022/04/23 11:16:18;;;;;;;10.60;4.40;;;19.60;99.90;;;;;;5066218;28;20048;-74
2022/04/23 11:18:46;;;;;;;8.30;4.78;;;19.40;99.30;;;;;;5058138;28;20044;-69
2022/04/23 11:21:26;;;;;;;9.45;4.07;;;19.60;99.90;;;;;;5070136;28;20037;-72
2022/04/23 11:23:57;;;;;;;7.72;4.22;;;19.70;99.90;;;;;;5066332;28;20055;-66
2022/04/23 11:26:46;;;;;;;11.27;4.63;;;19.50;99.90;;;;;;5065055;28;20020;-71
2022/04/23 11:29:14;;;;;;;7.90;3.70;;;19.50;99.20;;;;;;5061095;28;20044;-66
2022/04/23 11:31:41;;;;;;;8.90;3.70;;;19.30;99.90;;;;;;5059531;28;20028;-74
2022/04/23 11:34:07;;;;;;;8.48;3.53;;;19.00;99.40;;;;;;5070586;28;20029;-67
2022/04/23 11:36:37;;;;;;;8.63;3.70;;;19.10;99.90;;;;;;5060414;28;20028;-70
2022/04/23 11:39:09;;;;;;;6.30;3.88;;;19.30;99.90;;;;;;5061531;28;20017;-71
2022/04/23 11:41:36;;;;;;;5.40;3.63;;;19.50;99.90;;;;;;5054155;28;20017;-73
2022/04/23 11:47:06;;;;;;;5.47;2.75;;;19.70;98.30;;;;;;5073017;28;20045;-73
2022/04/23 11:49:32;;;;;;;5.15;3.10;;;19.70;97.40;;;;;;5074088;28;20496;-74
2022/04/23 11:52:08;;;;;;;11.35;4.50;;;19.80;95.50;;;;;;5074214;28;20029;-72
2022/04/23 11:54:34;;;;;;;10.82;3.92;;;19.80;99.50;;;;;;5073853;28;20029;-73
2022/04/23 11:57:00;;;;;;;8.00;3.28;;;19.60;99.90;;;;;;5090843;28;20040;-75
2022/04/23 11:59:35;;;;;;;9.07;4.30;;;19.60;99.30;;;;;;5086914;28;20063;-73
2022/04/23 12:02:01;;;;;;;7.55;4.32;;;19.70;99.90;;;;;;5073014;28;20119;-71
2022/04/23 12:04:39;;;;;;;4.78;3.03;;;19.90;99.90;;;;;;5074701;28;20099;-74
2022/04/23 12:07:05;;;;;;;6.75;3.65;;;19.90;99.90;;;;;;5065525;28;20532;-66
2022/04/23 12:09:31;;;;;;;5.80;3.25;;;19.90;98.60;;;;;;5056914;28;20025;-71
2022/04/23 12:11:59;;;;;;;8.02;3.70;;;19.80;96.20;;;;;;5051095;28;20470;-71
2022/04/23 12:14:25;;;;;;;6.38;3.58;;;19.80;97.80;;;;;;5069594;28;20035;-68
2022/04/23 12:16:51;;;;;;;9.05;3.53;;;20.00;99.40;;;;;;5073177;28;20470;-68
2022/04/23 12:19:17;;;;;;;6.82;3.50;;;20.00;99.90;;;;;;5077042;28;20020;-69
2022/04/23 12:21:57;;;;;;;10.98;3.58;;;19.90;96.70;;;;;;5072923;28;20028;-73
2022/04/23 12:24:33;;;;;;;6.55;3.72;;;19.80;96.80;;;;;;5070281;28;20031;-73
2022/04/23 12:27:05;;;;;;;15.52;9.77;;;19.60;99.90;;;;;;5070274;28;20107;-74
2022/04/23 12:40:59;;;;;;;5.35;3.10;;;20.10;95.30;;;;;;5073303;28;20032;-75
2022/04/23 12:43:28;;;;;;;9.93;4.70;;;20.10;98.00;;;;;;5072818;28;20077;-74
2022/04/23 12:46:10;;;;;;;5.78;3.05;;;20.10;97.70;;;;;;5071216;28;20055;-73
2022/04/23 12:48:56;;;;;;;10.15;4.55;;;19.80;98.20;;;;;;5052599;28;20041;-71
2022/04/23 12:51:22;;;;;;;4.68;2.92;;;19.60;97.00;;;;;;5060261;28;20101;-73
2022/04/23 12:53:48;;;;;;;9.07;4.18;;;19.60;97.90;;;;;;5072672;28;20017;-71
2022/04/23 12:56:16;;;;;;;6.38;3.45;;;19.60;97.10;;;;;;5069602;28;20040;-73
2022/04/23 12:58:42;;;;;;;9.43;3.83;;;19.60;97.60;;;;;;5072477;28;20031;-74
2022/04/23 13:01:13;;;;;;;7.97;3.90;;;19.50;99.90;;;;;;5071822;28;20074;-71
2022/04/23 13:03:45;;;;;;;5.57;3.17;;;19.70;99.90;;;;;;5054463;28;20348;-73
2022/04/23 13:08:56;;;;;;;9.10;4.07;;;19.70;98.30;;;;;;5072158;28;20040;-71
2022/04/23 13:11:30;;;;;;;11.27;5.53;;;19.80;98.60;;;;;;5071923;28;20028;-73
2022/04/23 13:14:04;;;;;;;11.88;6.43;;;19.80;98.00;;;;;;5072025;28;20051;-72
2022/04/23 13:16:32;;;;;;;8.23;3.63;;;20.00;99.10;;;;;;5072146;28;20032;-72
2022/04/23 13:19:00;;;;;;;10.98;5.65;;;19.90;94.60;;;;;;5072069;28;20050;-73
2022/04/23 13:21:32;;;;;;;9.75;4.28;;;20.00;95.40;;;;;;5071248;28;20025;-70
2022/04/23 13:23:58;;;;;;;6.10;3.42;;;19.90;97.90;;;;;;5071922;28;20107;-73
2022/04/23 13:26:30;;;;;;;11.00;4.60;;;20.10;98.10;;;;;;5071854;28;20487;-72
2022/04/23 13:28:57;;;;;;;7.07;3.50;;;20.30;98.60;;;;;;5071351;28;20040;-73